This is the latest recevied weather packets stored in our database for station/object WK7G. If no packets are shown the sender has not sent any weather packets the latest 10 day(s).
| Time | Temp. | Humidity | Pressure | Rain* | Wind** | Luminosity | Snow |
|---|---|---|---|---|---|---|---|
| 1777811935 | 3.89° C | 58% | 1011 hPa | 0 mm | - | 15 W/m² | - |
| 1777811634 | 3.33° C | 60% | 1010.9 hPa | 0 mm | - | 11 W/m² | - |
| 1777809516 | 2.78° C | 63% | 1010.9 hPa | 0 mm | - | 0 W/m² | - |
| 1777807700 | 3.89° C | 60% | 1010.9 hPa | 0 mm | - | 0 W/m² | - |
| 1777807098 | 2.78° C | 62% | 1010.9 hPa | 0 mm | - | 0 W/m² | - |
| 1777805280 | 2.22° C | 67% | 1011.1 hPa | 0 mm | - | 0 W/m² | - |
| 1777804675 | 4.44° C | 56% | 1011.1 hPa | 0 mm | - | 0 W/m² | - |
| 1777804373 | 3.89° C | 59% | 1011.1 hPa | 0 mm | - | 0 W/m² | - |
| 1777803766 | 3.89° C | 57% | 1011 hPa | 0 mm | - | 0 W/m² | - |
| 1777803160 | 3.89° C | 60% | 1010.9 hPa | 0 mm | - | 0 W/m² | - |
| 1777802856 | 4.44° C | 57% | 1010.9 hPa | 0 mm | - | 0 W/m² | - |
| 1777802252 | 4.44° C | 58% | 1010.9 hPa | 0 mm | - | 0 W/m² | - |
| 1777801950 | 4.44° C | 55% | 1011.1 hPa | 0 mm | - | 0 W/m² | - |
| 1777801040 | 6.11° C | 51% | 1010.5 hPa | 0 mm | - | 0 W/m² | - |
| 1777800737 | 6.11° C | 52% | 1010.9 hPa | 0 mm | - | 0 W/m² | - |
| 1777800432 | 6.67° C | 50% | 1010.5 hPa | 0 mm | - | 0 W/m² | - |
| 1777800129 | 5.56° C | 52% | 1010.9 hPa | 0 mm | - | 0 W/m² | - |
| 1777799824 | 6.11° C | 53% | 1010.7 hPa | 0 mm | - | 0 W/m² | - |
| 1777799523 | 6.11° C | 51% | 1010.5 hPa | 0 mm | - | 0 W/m² | - |
| 1777799218 | 6.11° C | 56% | 1010.9 hPa | 0 mm | - | 0 W/m² | - |
| 1777798914 | 6.11° C | 51% | 1010.9 hPa | 0 mm | - | 0 W/m² | - |
| 1777798610 | 6.11° C | 52% | 1010.9 hPa | 0 mm | - | 0 W/m² | - |
| 1777798307 | 5.56° C | 54% | 1010.9 hPa | 0 mm | - | 0 W/m² | - |
| 1777798003 | 5.56° C | 52% | 1010.9 hPa | 0 mm | - | 0 W/m² | - |
| 1777797701 | 5° C | 55% | 1010.9 hPa | 0 mm | - | 0 W/m² | - |
* Rain latest hour (hover to see other rain measurements)
** Current wind speed in m/s (hover to see current wind gust speed)